FLE1003 CYYC-CYVR
Flight info
| Callsign | FLE1003 |
|---|---|
| Flight time | 1h 12m |
| Altitude | 36000 |
| Route | BOTAG Q894 BOOTH CANUC6 |
| Aircraft | B738/M-SDE2E3FGHIRWXY/LB1 |
Departure
| Time | 2026-05-07 00:53 |
|---|---|
| Airport | Calgary International Airport (CYYC) |
Arrival
| Time | 2026-05-07 02:05 |
|---|---|
| Airport | Vancouver International Airport (CYVR) |
| Time | Latitude | Longitude | Altitude | Speed | Heading |
|---|---|---|---|---|---|
| 2026-05-07 00:21 | 51.12809 | -114.00877 | 3549 ft | 0 kts | 359° |
| 2026-05-07 00:39 | 51.12801 | -114.00876 | 3547 ft | 4 kts | 0° |
| 2026-05-07 00:40 | 51.12774 | -114.00874 | 3547 ft | 4 kts | 341° |
| 2026-05-07 00:40 | 51.12754 | -114.00853 | 3549 ft | 4 kts | 297° |
| 2026-05-07 00:40 | 51.12749 | -114.00831 | 3550 ft | 0 kts | 275° |
| 2026-05-07 00:42 | 51.12750 | -114.00845 | 3550 ft | 5 kts | 275° |
| 2026-05-07 00:43 | 51.12755 | -114.00933 | 3549 ft | 11 kts | 276° |
| 2026-05-07 00:43 | 51.12800 | -114.01054 | 3547 ft | 15 kts | 297° |
| 2026-05-07 00:43 | 51.12781 | -114.01209 | 3541 ft | 16 kts | 224° |
| 2026-05-07 00:43 | 51.12700 | -114.01323 | 3541 ft | 15 kts | 221° |
| 2026-05-07 00:44 | 51.12616 | -114.01452 | 3544 ft | 19 kts | 238° |
| 2026-05-07 00:44 | 51.12602 | -114.01684 | 3543 ft | 22 kts | 270° |
| 2026-05-07 00:44 | 51.12603 | -114.01930 | 3542 ft | 22 kts | 270° |
| 2026-05-07 00:44 | 51.12603 | -114.02166 | 3540 ft | 21 kts | 270° |
| 2026-05-07 00:45 | 51.12603 | -114.02398 | 3542 ft | 21 kts | 270° |
| 2026-05-07 00:45 | 51.12604 | -114.02624 | 3542 ft | 20 kts | 270° |
| 2026-05-07 00:45 | 51.12621 | -114.02839 | 3541 ft | 19 kts | 288° |
| 2026-05-07 00:45 | 51.12683 | -114.03027 | 3541 ft | 19 kts | 300° |
| 2026-05-07 00:46 | 51.12747 | -114.03201 | 3539 ft | 18 kts | 300° |
| 2026-05-07 00:46 | 51.12808 | -114.03371 | 3539 ft | 18 kts | 300° |
| 2026-05-07 00:46 | 51.12860 | -114.03541 | 3538 ft | 17 kts | 280° |
| 2026-05-07 00:46 | 51.12853 | -114.03624 | 3538 ft | 0 kts | 244° |
| 2026-05-07 00:51 | 51.12849 | -114.03636 | 3538 ft | 5 kts | 239° |
| 2026-05-07 00:51 | 51.12817 | -114.03690 | 3538 ft | 7 kts | 218° |
| 2026-05-07 00:51 | 51.12763 | -114.03719 | 3537 ft | 11 kts | 185° |
| 2026-05-07 00:51 | 51.12677 | -114.03650 | 3537 ft | 16 kts | 126° |
| 2026-05-07 00:52 | 51.12625 | -114.03505 | 3538 ft | 15 kts | 121° |
| 2026-05-07 00:52 | 51.12559 | -114.03325 | 3541 ft | 41 kts | 120° |
| 2026-05-07 00:52 | 51.12262 | -114.02511 | 3540 ft | 126 kts | 120° |
| 2026-05-07 00:52 | 51.11712 | -114.00990 | 3724 ft | 182 kts | 119° |
| 2026-05-07 00:53 | 51.11059 | -113.99142 | 4534 ft | 199 kts | 117° |
| 2026-05-07 00:53 | 51.10390 | -113.97229 | 5579 ft | 198 kts | 118° |
| 2026-05-07 00:53 | 51.09704 | -113.95201 | 6117 ft | 220 kts | 118° |
| 2026-05-07 00:53 | 51.08758 | -113.93163 | 6598 ft | 239 kts | 142° |
| 2026-05-07 00:54 | 51.07205 | -113.92059 | 7126 ft | 255 kts | 174° |
| 2026-05-07 00:54 | 51.05387 | -113.92125 | 7647 ft | 271 kts | 195° |
| 2026-05-07 00:54 | 51.03728 | -113.93554 | 8290 ft | 277 kts | 229° |
| 2026-05-07 00:54 | 51.02878 | -113.96221 | 9266 ft | 273 kts | 262° |
| 2026-05-07 00:55 | 51.02891 | -113.99238 | 10198 ft | 275 kts | 276° |
| 2026-05-07 00:55 | 51.03102 | -114.02353 | 10535 ft | 301 kts | 277° |
| 2026-05-07 00:55 | 51.03366 | -114.05799 | 10799 ft | 325 kts | 278° |
| 2026-05-07 00:55 | 51.03641 | -114.09429 | 11442 ft | 335 kts | 278° |
| 2026-05-07 00:56 | 51.03910 | -114.13129 | 12351 ft | 336 kts | 278° |
| 2026-05-07 00:56 | 51.04166 | -114.16807 | 13291 ft | 338 kts | 278° |
| 2026-05-07 00:56 | 51.04419 | -114.20531 | 14087 ft | 342 kts | 278° |
| 2026-05-07 00:56 | 51.04670 | -114.24306 | 14847 ft | 346 kts | 278° |
| 2026-05-07 00:57 | 51.04916 | -114.28072 | 15653 ft | 347 kts | 278° |
| 2026-05-07 00:57 | 51.05167 | -114.31927 | 16395 ft | 352 kts | 278° |
| 2026-05-07 00:57 | 51.05418 | -114.35818 | 17060 ft | 357 kts | 278° |
| 2026-05-07 00:57 | 51.05672 | -114.39789 | 17768 ft | 362 kts | 278° |
| 2026-05-07 00:58 | 51.05927 | -114.43798 | 18476 ft | 365 kts | 277° |
| 2026-05-07 00:58 | 51.06182 | -114.47817 | 19137 ft | 367 kts | 277° |
| 2026-05-07 00:58 | 51.06435 | -114.51833 | 19777 ft | 370 kts | 277° |
| 2026-05-07 00:58 | 51.06691 | -114.55913 | 20410 ft | 372 kts | 277° |
| 2026-05-07 00:59 | 51.06544 | -114.64230 | 21631 ft | 383 kts | 261° |
| 2026-05-07 00:59 | 51.05899 | -114.68373 | 22253 ft | 386 kts | 258° |
| 2026-05-07 00:59 | 51.05221 | -114.72525 | 22835 ft | 389 kts | 259° |
| 2026-05-07 01:00 | 51.04563 | -114.76664 | 23386 ft | 393 kts | 259° |
| 2026-05-07 01:00 | 51.03896 | -114.80918 | 23864 ft | 395 kts | 259° |
| 2026-05-07 01:00 | 51.03214 | -114.85182 | 24350 ft | 398 kts | 259° |
| 2026-05-07 01:00 | 51.02532 | -114.89412 | 24660 ft | 404 kts | 258° |
| 2026-05-07 01:01 | 51.01823 | -114.93775 | 25087 ft | 407 kts | 258° |
| 2026-05-07 01:01 | 51.01113 | -114.98132 | 25631 ft | 408 kts | 258° |
| 2026-05-07 01:01 | 51.00397 | -115.02522 | 25834 ft | 408 kts | 258° |
| 2026-05-07 01:01 | 50.99684 | -115.06885 | 25866 ft | 409 kts | 258° |
| 2026-05-07 01:02 | 50.98979 | -115.11270 | 25853 ft | 411 kts | 259° |
| 2026-05-07 01:02 | 50.98296 | -115.15622 | 25889 ft | 411 kts | 257° |
| 2026-05-07 01:02 | 50.97522 | -115.19985 | 25886 ft | 411 kts | 257° |
| 2026-05-07 01:02 | 50.96764 | -115.24376 | 25887 ft | 411 kts | 257° |
| 2026-05-07 01:03 | 50.96022 | -115.28751 | 25891 ft | 410 kts | 258° |
| 2026-05-07 01:03 | 50.95306 | -115.33165 | 25899 ft | 410 kts | 258° |
| 2026-05-07 01:03 | 50.94610 | -115.37475 | 25897 ft | 407 kts | 258° |
| 2026-05-07 01:03 | 50.93899 | -115.41840 | 25895 ft | 407 kts | 258° |
| 2026-05-07 01:04 | 50.93187 | -115.46169 | 25899 ft | 406 kts | 258° |
| 2026-05-07 01:04 | 50.92467 | -115.50509 | 25906 ft | 405 kts | 258° |
| 2026-05-07 01:04 | 50.91746 | -115.54825 | 25915 ft | 405 kts | 258° |
| 2026-05-07 01:04 | 50.91031 | -115.59093 | 25916 ft | 405 kts | 258° |
| 2026-05-07 01:05 | 50.90302 | -115.63426 | 25911 ft | 406 kts | 258° |
| 2026-05-07 01:05 | 50.89571 | -115.67751 | 25910 ft | 407 kts | 258° |
| 2026-05-07 01:05 | 50.88836 | -115.72088 | 25897 ft | 407 kts | 258° |
| 2026-05-07 01:05 | 50.88109 | -115.76370 | 25899 ft | 407 kts | 258° |
| 2026-05-07 01:06 | 50.87370 | -115.80715 | 25890 ft | 407 kts | 258° |
| 2026-05-07 01:06 | 50.86633 | -115.85033 | 25905 ft | 407 kts | 257° |
| 2026-05-07 01:06 | 50.85893 | -115.89361 | 25894 ft | 407 kts | 258° |
| 2026-05-07 01:06 | 50.85150 | -115.93686 | 25894 ft | 407 kts | 257° |
| 2026-05-07 01:07 | 50.84411 | -115.97965 | 25912 ft | 406 kts | 257° |
| 2026-05-07 01:07 | 50.83666 | -116.02286 | 25884 ft | 407 kts | 257° |
| 2026-05-07 01:07 | 50.82924 | -116.06597 | 25886 ft | 406 kts | 257° |
| 2026-05-07 01:07 | 50.82179 | -116.10909 | 25902 ft | 405 kts | 257° |
| 2026-05-07 01:08 | 50.81432 | -116.15219 | 25886 ft | 405 kts | 257° |
| 2026-05-07 01:08 | 50.80687 | -116.19507 | 25907 ft | 404 kts | 257° |
| 2026-05-07 01:08 | 50.79938 | -116.23805 | 25886 ft | 404 kts | 257° |
| 2026-05-07 01:08 | 50.79189 | -116.28090 | 25893 ft | 404 kts | 257° |
| 2026-05-07 01:09 | 50.78439 | -116.32368 | 25885 ft | 404 kts | 257° |
| 2026-05-07 01:09 | 50.77696 | -116.36603 | 25894 ft | 404 kts | 257° |
| 2026-05-07 01:09 | 50.76942 | -116.40895 | 25920 ft | 405 kts | 257° |
| 2026-05-07 01:09 | 50.76185 | -116.45189 | 25916 ft | 405 kts | 257° |
| 2026-05-07 01:10 | 50.75410 | -116.49485 | 25921 ft | 405 kts | 256° |
| 2026-05-07 01:10 | 50.74607 | -116.53696 | 25920 ft | 405 kts | 256° |
| 2026-05-07 01:10 | 50.73774 | -116.57961 | 25943 ft | 406 kts | 256° |
| 2026-05-07 01:10 | 50.72934 | -116.62233 | 25932 ft | 407 kts | 256° |
| 2026-05-07 01:11 | 50.72094 | -116.66509 | 25930 ft | 408 kts | 256° |
| 2026-05-07 01:11 | 50.71255 | -116.70796 | 25922 ft | 408 kts | 256° |
| 2026-05-07 01:11 | 50.70425 | -116.75019 | 25927 ft | 407 kts | 256° |
| 2026-05-07 01:11 | 50.69586 | -116.79287 | 25930 ft | 406 kts | 256° |
| 2026-05-07 01:12 | 50.68744 | -116.83565 | 25945 ft | 406 kts | 256° |
| 2026-05-07 01:12 | 50.67906 | -116.87826 | 25942 ft | 406 kts | 256° |
| 2026-05-07 01:12 | 50.67075 | -116.92048 | 25918 ft | 407 kts | 255° |
| 2026-05-07 01:12 | 50.66233 | -116.96308 | 25939 ft | 406 kts | 256° |
| 2026-05-07 01:13 | 50.65390 | -117.00570 | 25940 ft | 407 kts | 256° |
| 2026-05-07 01:13 | 50.64544 | -117.04839 | 25925 ft | 407 kts | 256° |
| 2026-05-07 01:13 | 50.63707 | -117.09050 | 25883 ft | 407 kts | 256° |
| 2026-05-07 01:13 | 50.62856 | -117.13318 | 25925 ft | 408 kts | 256° |
| 2026-05-07 01:14 | 50.62002 | -117.17592 | 25926 ft | 410 kts | 256° |
| 2026-05-07 01:14 | 50.61146 | -117.21884 | 25913 ft | 411 kts | 256° |
| 2026-05-07 01:14 | 50.60288 | -117.26178 | 25911 ft | 411 kts | 255° |
| 2026-05-07 01:14 | 50.59434 | -117.30424 | 25923 ft | 412 kts | 255° |
| 2026-05-07 01:15 | 50.58567 | -117.34725 | 25908 ft | 412 kts | 255° |
| 2026-05-07 01:15 | 50.57700 | -117.39031 | 25908 ft | 412 kts | 255° |
| 2026-05-07 01:15 | 50.56830 | -117.43330 | 25879 ft | 411 kts | 255° |
| 2026-05-07 01:15 | 50.55961 | -117.47607 | 25894 ft | 409 kts | 255° |
| 2026-05-07 01:16 | 50.55091 | -117.51887 | 25884 ft | 409 kts | 256° |
| 2026-05-07 01:16 | 50.54235 | -117.56087 | 25889 ft | 408 kts | 256° |
| 2026-05-07 01:16 | 50.53364 | -117.60360 | 25871 ft | 408 kts | 256° |
| 2026-05-07 01:16 | 50.52495 | -117.64613 | 25871 ft | 408 kts | 255° |
| 2026-05-07 01:17 | 50.51631 | -117.68824 | 25865 ft | 408 kts | 255° |
| 2026-05-07 01:17 | 50.50759 | -117.73070 | 25876 ft | 408 kts | 255° |
| 2026-05-07 01:17 | 50.49885 | -117.77321 | 25861 ft | 409 kts | 255° |
| 2026-05-07 01:17 | 50.49008 | -117.81575 | 25863 ft | 410 kts | 255° |
| 2026-05-07 01:18 | 50.48125 | -117.85849 | 25862 ft | 411 kts | 255° |
| 2026-05-07 01:18 | 50.47540 | -117.88679 | 25859 ft | 411 kts | 255° |
| 2026-05-07 01:18 | 50.46364 | -117.94345 | 25834 ft | 412 kts | 255° |
| 2026-05-07 01:18 | 50.45473 | -117.98625 | 25846 ft | 409 kts | 256° |
| 2026-05-07 01:19 | 50.44589 | -118.02862 | 25851 ft | 409 kts | 256° |
| 2026-05-07 01:19 | 50.44002 | -118.05675 | 25851 ft | 408 kts | 256° |
| 2026-05-07 01:19 | 50.43116 | -118.09914 | 25862 ft | 408 kts | 255° |
| 2026-05-07 01:19 | 50.42228 | -118.14152 | 25854 ft | 408 kts | 255° |
| 2026-05-07 01:20 | 50.41340 | -118.18382 | 25856 ft | 407 kts | 255° |
| 2026-05-07 01:20 | 50.40455 | -118.22588 | 25859 ft | 407 kts | 255° |
| 2026-05-07 01:20 | 50.39575 | -118.26755 | 25865 ft | 406 kts | 255° |
| 2026-05-07 01:20 | 50.38682 | -118.30985 | 25867 ft | 407 kts | 255° |
| 2026-05-07 01:21 | 50.37787 | -118.35210 | 25858 ft | 407 kts | 255° |
| 2026-05-07 01:21 | 50.36905 | -118.39368 | 25872 ft | 407 kts | 255° |
| 2026-05-07 01:21 | 50.36009 | -118.43584 | 25861 ft | 408 kts | 255° |
| 2026-05-07 01:21 | 50.35108 | -118.47809 | 25854 ft | 408 kts | 255° |
| 2026-05-07 01:22 | 50.34207 | -118.52030 | 25859 ft | 408 kts | 255° |
| 2026-05-07 01:22 | 50.33302 | -118.56260 | 25865 ft | 408 kts | 255° |
| 2026-05-07 01:22 | 50.32411 | -118.60412 | 25863 ft | 408 kts | 255° |
| 2026-05-07 01:22 | 50.31503 | -118.64642 | 25876 ft | 408 kts | 255° |
| 2026-05-07 01:23 | 50.30593 | -118.68867 | 25862 ft | 408 kts | 255° |
| 2026-05-07 01:23 | 50.29695 | -118.73025 | 25861 ft | 408 kts | 255° |
| 2026-05-07 01:23 | 50.28786 | -118.77229 | 25856 ft | 408 kts | 255° |
| 2026-05-07 01:23 | 50.27876 | -118.81427 | 25833 ft | 407 kts | 256° |
| 2026-05-07 01:24 | 50.26967 | -118.85615 | 25843 ft | 406 kts | 256° |
| 2026-05-07 01:24 | 50.26053 | -118.89814 | 25845 ft | 407 kts | 256° |
| 2026-05-07 01:24 | 50.25139 | -118.94011 | 25706 ft | 408 kts | 256° |
| 2026-05-07 01:24 | 50.24233 | -118.98162 | 25583 ft | 406 kts | 256° |
| 2026-05-07 01:25 | 50.23320 | -119.02330 | 25458 ft | 404 kts | 256° |
| 2026-05-07 01:25 | 50.22407 | -119.06495 | 25350 ft | 405 kts | 255° |
| 2026-05-07 01:25 | 50.21489 | -119.10675 | 25237 ft | 406 kts | 255° |
| 2026-05-07 01:25 | 50.20567 | -119.14858 | 25113 ft | 405 kts | 255° |
| 2026-05-07 01:26 | 50.19652 | -119.19005 | 24999 ft | 404 kts | 255° |
| 2026-05-07 01:26 | 50.18737 | -119.23143 | 24874 ft | 403 kts | 255° |
| 2026-05-07 01:26 | 50.17825 | -119.27258 | 24754 ft | 401 kts | 255° |
| 2026-05-07 01:26 | 50.16923 | -119.31323 | 24641 ft | 400 kts | 255° |
| 2026-05-07 01:27 | 50.16015 | -119.35403 | 24508 ft | 398 kts | 255° |
| 2026-05-07 01:27 | 50.15107 | -119.39478 | 24384 ft | 398 kts | 255° |
| 2026-05-07 01:27 | 50.14194 | -119.43573 | 24285 ft | 400 kts | 255° |
| 2026-05-07 01:27 | 50.13278 | -119.47672 | 24165 ft | 399 kts | 255° |
| 2026-05-07 01:28 | 50.12358 | -119.51773 | 24041 ft | 398 kts | 255° |
| 2026-05-07 01:28 | 50.11458 | -119.55781 | 23943 ft | 397 kts | 255° |
| 2026-05-07 01:28 | 50.10539 | -119.59867 | 23818 ft | 397 kts | 255° |
| 2026-05-07 01:28 | 50.09626 | -119.63917 | 23699 ft | 396 kts | 255° |
| 2026-05-07 01:29 | 50.08709 | -119.67976 | 23576 ft | 394 kts | 255° |
| 2026-05-07 01:29 | 50.07799 | -119.71993 | 23460 ft | 392 kts | 255° |
| 2026-05-07 01:29 | 50.06892 | -119.75992 | 23349 ft | 391 kts | 255° |
| 2026-05-07 01:29 | 50.05996 | -119.79936 | 23211 ft | 390 kts | 255° |
| 2026-05-07 01:30 | 50.05090 | -119.83918 | 23087 ft | 390 kts | 255° |
| 2026-05-07 01:30 | 50.04182 | -119.87903 | 22956 ft | 390 kts | 255° |
| 2026-05-07 01:30 | 50.03275 | -119.91877 | 22821 ft | 391 kts | 255° |
| 2026-05-07 01:30 | 50.02362 | -119.95870 | 22714 ft | 391 kts | 255° |
| 2026-05-07 01:31 | 50.01446 | -119.99864 | 22575 ft | 390 kts | 254° |
| 2026-05-07 01:31 | 50.00533 | -120.03837 | 22441 ft | 390 kts | 254° |
| 2026-05-07 01:31 | 49.99630 | -120.07763 | 22291 ft | 389 kts | 255° |
| 2026-05-07 01:31 | 49.98718 | -120.11713 | 22154 ft | 388 kts | 255° |
| 2026-05-07 01:32 | 49.97807 | -120.15656 | 22052 ft | 386 kts | 254° |
| 2026-05-07 01:32 | 49.96897 | -120.19588 | 21918 ft | 385 kts | 254° |
| 2026-05-07 01:32 | 49.95991 | -120.23495 | 21787 ft | 384 kts | 254° |
| 2026-05-07 01:32 | 49.95086 | -120.27391 | 21650 ft | 383 kts | 254° |
| 2026-05-07 01:33 | 49.94192 | -120.31234 | 21553 ft | 382 kts | 254° |
| 2026-05-07 01:33 | 49.93289 | -120.35111 | 21418 ft | 382 kts | 254° |
| 2026-05-07 01:33 | 49.92381 | -120.39001 | 21297 ft | 381 kts | 254° |
| 2026-05-07 01:33 | 49.91473 | -120.42879 | 21161 ft | 381 kts | 254° |
| 2026-05-07 01:34 | 49.90577 | -120.46703 | 21048 ft | 380 kts | 254° |
| 2026-05-07 01:34 | 49.89668 | -120.50575 | 20923 ft | 380 kts | 254° |
| 2026-05-07 01:34 | 49.88763 | -120.54424 | 20794 ft | 380 kts | 253° |
| 2026-05-07 01:34 | 49.87852 | -120.58292 | 20668 ft | 380 kts | 253° |
| 2026-05-07 01:35 | 49.86956 | -120.62088 | 20564 ft | 379 kts | 253° |
| 2026-05-07 01:35 | 49.86047 | -120.65933 | 20456 ft | 378 kts | 253° |
| 2026-05-07 01:35 | 49.85139 | -120.69761 | 20347 ft | 377 kts | 253° |
| 2026-05-07 01:35 | 49.84234 | -120.73574 | 20247 ft | 377 kts | 253° |
| 2026-05-07 01:36 | 49.83327 | -120.77392 | 20120 ft | 377 kts | 253° |
| 2026-05-07 01:36 | 49.82419 | -120.81206 | 20017 ft | 377 kts | 253° |
| 2026-05-07 01:36 | 49.81521 | -120.84973 | 19906 ft | 377 kts | 253° |
| 2026-05-07 01:36 | 49.80606 | -120.88800 | 19772 ft | 377 kts | 253° |
| 2026-05-07 01:37 | 49.79697 | -120.92596 | 19647 ft | 377 kts | 253° |
| 2026-05-07 01:37 | 49.78782 | -120.96410 | 19562 ft | 376 kts | 253° |
| 2026-05-07 01:37 | 49.77871 | -121.00205 | 19428 ft | 376 kts | 253° |
| 2026-05-07 01:37 | 49.76972 | -121.03937 | 19319 ft | 374 kts | 253° |
| 2026-05-07 01:38 | 49.76064 | -121.07705 | 19193 ft | 372 kts | 253° |
| 2026-05-07 01:38 | 49.75156 | -121.11464 | 19102 ft | 371 kts | 253° |
| 2026-05-07 01:38 | 49.74251 | -121.15204 | 18992 ft | 370 kts | 253° |
| 2026-05-07 01:38 | 49.73351 | -121.18924 | 18886 ft | 370 kts | 253° |
| 2026-05-07 01:39 | 49.72443 | -121.22667 | 18754 ft | 370 kts | 253° |
| 2026-05-07 01:39 | 49.71551 | -121.26345 | 18651 ft | 370 kts | 253° |
| 2026-05-07 01:39 | 49.70641 | -121.30083 | 18556 ft | 371 kts | 252° |
| 2026-05-07 01:39 | 49.69730 | -121.33816 | 18442 ft | 371 kts | 252° |
| 2026-05-07 01:40 | 49.68818 | -121.37546 | 18324 ft | 371 kts | 252° |
| 2026-05-07 01:40 | 49.67903 | -121.41282 | 18203 ft | 372 kts | 252° |
| 2026-05-07 01:40 | 49.66986 | -121.45022 | 18084 ft | 370 kts | 252° |
| 2026-05-07 01:40 | 49.66075 | -121.48728 | 17956 ft | 369 kts | 252° |
| 2026-05-07 01:41 | 49.65174 | -121.52392 | 17824 ft | 369 kts | 252° |
| 2026-05-07 01:41 | 49.64259 | -121.56104 | 17697 ft | 369 kts | 252° |
| 2026-05-07 01:41 | 49.63346 | -121.59802 | 17581 ft | 368 kts | 252° |
| 2026-05-07 01:41 | 49.62431 | -121.63503 | 17457 ft | 368 kts | 252° |
| 2026-05-07 01:42 | 49.61528 | -121.67145 | 17312 ft | 367 kts | 252° |
| 2026-05-07 01:42 | 49.60613 | -121.70835 | 17185 ft | 367 kts | 252° |
| 2026-05-07 01:42 | 49.59701 | -121.74509 | 17037 ft | 365 kts | 252° |
| 2026-05-07 01:42 | 49.58789 | -121.78178 | 16944 ft | 364 kts | 252° |
| 2026-05-07 01:43 | 49.57890 | -121.81790 | 16813 ft | 364 kts | 252° |
| 2026-05-07 01:43 | 49.56979 | -121.85440 | 16679 ft | 362 kts | 252° |
| 2026-05-07 01:43 | 49.56076 | -121.89050 | 16554 ft | 361 kts | 252° |
| 2026-05-07 01:43 | 49.55171 | -121.92668 | 16444 ft | 360 kts | 252° |
| 2026-05-07 01:44 | 49.54278 | -121.96231 | 16319 ft | 359 kts | 252° |
| 2026-05-07 01:44 | 49.53375 | -121.99823 | 16203 ft | 358 kts | 252° |
| 2026-05-07 01:44 | 49.52474 | -122.03402 | 16033 ft | 358 kts | 251° |
| 2026-05-07 01:44 | 49.51433 | -122.06831 | 15938 ft | 359 kts | 243° |
| 2026-05-07 01:45 | 49.50101 | -122.10089 | 15822 ft | 360 kts | 240° |
| 2026-05-07 01:45 | 49.48736 | -122.13323 | 15714 ft | 361 kts | 241° |
| 2026-05-07 01:45 | 49.47388 | -122.16602 | 15591 ft | 362 kts | 242° |
| 2026-05-07 01:45 | 49.46062 | -122.19898 | 15472 ft | 362 kts | 242° |
| 2026-05-07 01:46 | 49.44750 | -122.23205 | 15348 ft | 362 kts | 242° |
| 2026-05-07 01:46 | 49.43443 | -122.26509 | 15232 ft | 359 kts | 242° |
| 2026-05-07 01:46 | 49.42158 | -122.29754 | 15199 ft | 359 kts | 242° |
| 2026-05-07 01:46 | 49.40864 | -122.33012 | 15170 ft | 357 kts | 242° |
| 2026-05-07 01:47 | 49.39556 | -122.36271 | 15102 ft | 360 kts | 242° |
| 2026-05-07 01:47 | 49.38183 | -122.39512 | 14870 ft | 359 kts | 240° |
| 2026-05-07 01:47 | 49.36801 | -122.42699 | 14590 ft | 356 kts | 240° |
| 2026-05-07 01:47 | 49.35435 | -122.45837 | 14352 ft | 355 kts | 240° |
| 2026-05-07 01:48 | 49.34075 | -122.48975 | 14091 ft | 351 kts | 240° |
| 2026-05-07 01:48 | 49.32731 | -122.52088 | 13746 ft | 350 kts | 240° |
| 2026-05-07 01:48 | 49.31386 | -122.55210 | 13396 ft | 351 kts | 240° |
| 2026-05-07 01:48 | 49.30043 | -122.58323 | 13031 ft | 351 kts | 240° |
| 2026-05-07 01:49 | 49.28697 | -122.61442 | 12682 ft | 350 kts | 240° |
| 2026-05-07 01:49 | 49.27351 | -122.64552 | 12321 ft | 348 kts | 239° |
| 2026-05-07 01:49 | 49.26022 | -122.67621 | 11958 ft | 345 kts | 239° |
| 2026-05-07 01:49 | 49.24916 | -122.70784 | 11585 ft | 338 kts | 255° |
| 2026-05-07 01:50 | 49.24583 | -122.74289 | 11264 ft | 330 kts | 271° |
| 2026-05-07 01:50 | 49.24839 | -122.77766 | 10932 ft | 326 kts | 281° |
| 2026-05-07 01:50 | 49.25269 | -122.81183 | 10575 ft | 325 kts | 281° |
| 2026-05-07 01:50 | 49.25696 | -122.84534 | 10254 ft | 324 kts | 281° |
| 2026-05-07 01:51 | 49.26108 | -122.87919 | 9903 ft | 323 kts | 280° |
| 2026-05-07 01:51 | 49.26509 | -122.91314 | 9529 ft | 322 kts | 280° |
| 2026-05-07 01:51 | 49.26901 | -122.94685 | 9178 ft | 321 kts | 280° |
| 2026-05-07 01:51 | 49.27287 | -122.98018 | 8809 ft | 321 kts | 280° |
| 2026-05-07 01:52 | 49.27676 | -123.01393 | 8461 ft | 320 kts | 280° |
| 2026-05-07 01:52 | 49.28065 | -123.04753 | 8107 ft | 320 kts | 280° |
| 2026-05-07 01:52 | 49.28460 | -123.08104 | 7747 ft | 319 kts | 280° |
| 2026-05-07 01:52 | 49.28856 | -123.11445 | 7396 ft | 318 kts | 281° |
| 2026-05-07 01:53 | 49.29246 | -123.14737 | 7068 ft | 317 kts | 281° |
| 2026-05-07 01:53 | 49.29638 | -123.18059 | 6725 ft | 316 kts | 281° |
| 2026-05-07 01:53 | 49.30026 | -123.21361 | 6387 ft | 314 kts | 281° |
| 2026-05-07 01:53 | 49.30413 | -123.24664 | 6020 ft | 315 kts | 281° |
| 2026-05-07 01:54 | 49.30787 | -123.27955 | 5661 ft | 315 kts | 280° |
| 2026-05-07 01:54 | 49.31144 | -123.31249 | 5313 ft | 315 kts | 279° |
| 2026-05-07 01:54 | 49.31495 | -123.34538 | 4953 ft | 310 kts | 279° |
| 2026-05-07 01:54 | 49.31848 | -123.37783 | 4590 ft | 308 kts | 279° |
| 2026-05-07 01:55 | 49.32195 | -123.41024 | 4218 ft | 308 kts | 279° |
| 2026-05-07 01:55 | 49.32541 | -123.44272 | 3872 ft | 307 kts | 279° |
| 2026-05-07 01:55 | 49.32880 | -123.47457 | 3525 ft | 306 kts | 279° |
| 2026-05-07 01:55 | 49.33213 | -123.50680 | 3167 ft | 306 kts | 279° |
| 2026-05-07 01:56 | 49.33376 | -123.53920 | 2791 ft | 303 kts | 262° |
| 2026-05-07 01:56 | 49.32573 | -123.56771 | 2704 ft | 281 kts | 232° |
| 2026-05-07 01:56 | 49.31231 | -123.58618 | 2684 ft | 245 kts | 213° |
| 2026-05-07 01:56 | 49.29778 | -123.59629 | 2672 ft | 215 kts | 196° |
| 2026-05-07 01:57 | 49.28386 | -123.59944 | 2687 ft | 189 kts | 180° |
| 2026-05-07 01:57 | 49.27109 | -123.59722 | 2712 ft | 184 kts | 166° |
| 2026-05-07 01:57 | 49.25924 | -123.59054 | 2715 ft | 184 kts | 153° |
| 2026-05-07 01:57 | 49.24876 | -123.57960 | 2723 ft | 181 kts | 140° |
| 2026-05-07 01:58 | 49.23979 | -123.56628 | 2731 ft | 174 kts | 131° |
| 2026-05-07 01:58 | 49.23302 | -123.55192 | 2637 ft | 159 kts | 119° |
| 2026-05-07 01:58 | 49.22925 | -123.53649 | 2581 ft | 153 kts | 102° |
| 2026-05-07 01:58 | 49.22709 | -123.52062 | 2524 ft | 152 kts | 100° |
| 2026-05-07 01:59 | 49.22507 | -123.50478 | 2472 ft | 151 kts | 100° |
| 2026-05-07 01:59 | 49.22312 | -123.48927 | 2422 ft | 150 kts | 100° |
| 2026-05-07 01:59 | 49.22118 | -123.47351 | 2376 ft | 150 kts | 100° |
| 2026-05-07 01:59 | 49.21926 | -123.45782 | 2296 ft | 150 kts | 100° |
| 2026-05-07 02:00 | 49.21735 | -123.44218 | 2216 ft | 148 kts | 101° |
| 2026-05-07 02:00 | 49.21546 | -123.42673 | 2166 ft | 148 kts | 101° |
| 2026-05-07 02:00 | 49.21362 | -123.41155 | 2118 ft | 146 kts | 101° |
| 2026-05-07 02:00 | 49.21176 | -123.39626 | 2065 ft | 145 kts | 101° |
| 2026-05-07 02:01 | 49.20990 | -123.38100 | 2019 ft | 147 kts | 101° |
| 2026-05-07 02:01 | 49.20790 | -123.36465 | 2007 ft | 162 kts | 101° |
| 2026-05-07 02:01 | 49.20590 | -123.34755 | 1893 ft | 164 kts | 100° |
| 2026-05-07 02:01 | 49.20400 | -123.33062 | 1748 ft | 163 kts | 100° |
| 2026-05-07 02:02 | 49.20208 | -123.31351 | 1548 ft | 163 kts | 100° |
| 2026-05-07 02:02 | 49.20017 | -123.29652 | 1337 ft | 161 kts | 100° |
| 2026-05-07 02:02 | 49.19827 | -123.27969 | 1114 ft | 159 kts | 101° |
| 2026-05-07 02:02 | 49.19643 | -123.26333 | 854 ft | 151 kts | 101° |
| 2026-05-07 02:03 | 49.19471 | -123.24819 | 626 ft | 140 kts | 101° |
| 2026-05-07 02:03 | 49.19306 | -123.23361 | 416 ft | 149 kts | 100° |
| 2026-05-07 02:03 | 49.19130 | -123.21803 | 207 ft | 143 kts | 100° |
| 2026-05-07 02:03 | 49.18962 | -123.20334 | 46 ft | 139 kts | 100° |
| 2026-05-07 02:04 | 49.18800 | -123.18920 | 17 ft | 123 kts | 100° |
| 2026-05-07 02:04 | 49.18683 | -123.17902 | 18 ft | 74 kts | 100° |
| 2026-05-07 02:04 | 49.18632 | -123.17460 | 21 ft | 60 kts | 100° |
| 2026-05-07 02:04 | 49.18564 | -123.16859 | 15 ft | 54 kts | 99° |
| 2026-05-07 02:05 | 49.18519 | -123.16385 | 18 ft | 34 kts | 88° |
| 2026-05-07 02:05 | 49.18590 | -123.16199 | 19 ft | 19 kts | 6° |
| 2026-05-07 02:05 | 49.18680 | -123.16266 | 18 ft | 10 kts | 311° |
| 2026-05-07 02:05 | 49.18716 | -123.16363 | 18 ft | 15 kts | 285° |
| 2026-05-07 02:06 | 49.18722 | -123.16414 | 18 ft | 2 kts | 280° |
| 2026-05-07 02:06 | 49.18725 | -123.16433 | 19 ft | 0 kts | 280° |
| 2026-05-07 02:08 | 49.18731 | -123.16483 | 18 ft | 8 kts | 281° |
| 2026-05-07 02:09 | 49.18746 | -123.16607 | 18 ft | 17 kts | 281° |
| 2026-05-07 02:09 | 49.18772 | -123.16830 | 17 ft | 23 kts | 279° |
| 2026-05-07 02:09 | 49.18808 | -123.17167 | 17 ft | 39 kts | 279° |
| 2026-05-07 02:09 | 49.18856 | -123.17578 | 17 ft | 39 kts | 280° |
| 2026-05-07 02:10 | 49.18894 | -123.17909 | 19 ft | 27 kts | 280° |
| 2026-05-07 02:10 | 49.18966 | -123.18067 | 17 ft | 20 kts | 9° |
| 2026-05-07 02:10 | 49.19094 | -123.18071 | 17 ft | 15 kts | 319° |
| 2026-05-07 02:10 | 49.19181 | -123.18089 | 17 ft | 11 kts | 11° |
| 2026-05-07 02:11 | 49.19190 | -123.18086 | 17 ft | 0 kts | 11° |
| 2026-05-07 02:11 | 49.19184 | -123.18088 | 19 ft | 1 kts | 11° |